Estaciones Metar próximas

 

LELL - Sabadell, Spain
Distancia a la estación: E 18km
Actualizado: 22/10/2018 02:30
Despejado
Despejado
 Viento del ONO
Viento: ONO 9 km/h
Temperatura: 15°C
Rocío: 15°C
Humedad: 100%
Barómetro: 1018 hPa
Nubes: Despejado
Visibilidad: 8 km
2018/10/22 00:30 LELL 220030Z AUTO 29005KT 8000 NCD 15/15 Q1018
LEBL - Barcelona Airpor, Spain
Distancia a la estación: SSE 33km
Actualizado: 22/10/2018 03:00
Despejado
Despejado
 Viento del NO
Viento: NO 13 km/h
Temperatura: 18°C
Rocío: 15°C
Humedad: 83%
Barómetro: 1017 hPa
Resumen: Despejado
Visibilidad: greater than 10 km
2018/10/22 01:00 LEBL 220100Z 31007KT CAVOK 18/15 Q1017 NOSIG
LERS - Reus (civ/Mil), Spain
Distancia a la estación: SO 75km
Actualizado: 22/10/2018 03:00
Despejado
Despejado
 Viento del N
Viento: N 7 km/h
Temperatura: 15°C
Rocío: 12°C
Humedad: 82%
Barómetro: 1018 hPa
Nubes: Despejado
Visibilidad: 9 km
2018/10/22 01:00 LERS 220100Z AUTO 01004KT 9000 NCD 15/12 Q1018
 
LEGE - Gerona/Costa Bra, Spain
Distancia a la estación: ENE 83km
Actualizado: 22/10/2018 03:00
Parcialmente nuboso
Parcialmente nuboso
 Viento del calm
Viento: Calma
Temperatura: 11°C
Rocío: 11°C
Humedad: 100%
Barómetro: 1018 hPa
Nubes: Parcialmente nuboso
Visibilidad: 8 km
2018/10/22 01:00 LEGE 220100Z 00000KT 8000 NSC 11/11 Q1018
LFMP - Perpignan/Rivesa, France
Distancia a la estación: NNE 155km
Actualizado: 22/10/2018 03:00
Despejado
Despejado
 Viento del NO
Viento: NO 24 km/h
Temperatura: 20°C
Rocío: 11°C
Humedad: 56%
Barómetro: 1018 hPa
Resumen: Despejado
Visibilidad: greater than 10 km
2018/10/22 01:00 LFMP 220100Z AUTO 32013KT CAVOK 20/11 Q1018
LFMK - Carcassonne/Salv, France
Distancia a la estación: N 191km
Actualizado: 22/10/2018 03:00
Mist, Parcialmente nuboso
Mist, Parcialmente nuboso
 Viento del O
Viento: O 15 km/h
Temperatura: 14°C
Rocío: 13°C
Humedad: 94%
Barómetro: 1021 hPa
Resumen: Mist
Nubes: Parcialmente nuboso
Visibilidad: 5 km
2018/10/22 01:00 LFMK 220100Z AUTO 27008KT 4600 BR NSC 14/13 Q1021
 
LEHC - Huesca-Pirineos, Spain
Distancia a la estación: ONO 193km
Actualizado: 22/10/2018 02:30
Despejado
Despejado
 Viento del O
Viento: O 7 km/h
Temperatura: 12°C
Rocío: 11°C
Humedad: 94%
Barómetro: 1020 hPa
Nubes: Despejado
Visibilidad: 10 km
2018/10/22 00:30 LEHC 220030Z AUTO 26004KT 9999 NCD 12/11 Q1020
LFMU - Beziers/Vias, France
Distancia a la estación: NNE 232km
Actualizado: 22/10/2018 03:00
Despejado
Despejado
 Viento del ONO
Viento: ONO 11 km/h
Temperatura: 12°C
Rocío: 10°C
Humedad: 88%
Barómetro: 1020 hPa
Resumen: Despejado
Visibilidad: greater than 10 km
2018/10/22 01:00 LFMU 220100Z AUTO 30006KT CAVOK 12/10 Q1020
LEPA - Palma De Mallorc, Spain
Distancia a la estación: SSE 233km
Actualizado: 22/10/2018 03:00
Nubes dispersas
Nubes dispersas
 Viento del calm
Viento: Calma
Temperatura: 15°C
Rocío: 15°C
Humedad: 100%
Barómetro: 1017 hPa
Nubes: Nubes dispersas
Visibilidad: 10 km
Detalle Nubes: Nubes dispersas 366 m
2018/10/22 01:00 LEPA 220100Z 00000KT 9999 FEW012 15/15 Q1017 NOSIG
 
LFBO - Toulouse/Blagnac, France
Distancia a la estación: N 236km
Actualizado: 22/10/2018 03:00

 Viento del SSO
Viento: SSO 6 km/h
Visibilidad: 1 km
2018/10/22 01:00 LFBO 220100Z AUTO 20003KT 0900 0250 R14R/0300N R32L/1400U R14L/P2000 R32R/0750N FG VV/// 11/10 Q1022 TEMPO 0400 FG
LFBT - Tarbes/Ossun, France
Distancia a la estación: NO 239km
Actualizado: 22/10/2018 03:00
Mist, Muy nuboso
Mist, Muy nuboso
 Viento del SSO
Viento: SSO 11 km/h
Temperatura: 13°C
Rocío: 13°C
Humedad: 100%
Barómetro: 1023 hPa
Resumen: Mist
Nubes: Muy nuboso
Visibilidad: 5 km
Detalle Nubes: Muy nuboso 91 m
2018/10/22 01:00 LFBT 220100Z AUTO 21006KT 5000 BR BKN003 13/13 Q1023 TEMPO 0300 FG VV///
LEZG - Zaragoza (mil/Ci, Spain
Distancia a la estación: O 242km
Actualizado: 22/10/2018 03:00
Despejado
Despejado
 Viento del O
Viento: O 22 km/h
Temperatura: 16°C
Rocío: 13°C
Humedad: 83%
Barómetro: 1020 hPa
Resumen: Despejado
Visibilidad: greater than 10 km
2018/10/22 01:00 LEZG 220100Z 28012KT CAVOK 16/13 Q1020